createdAt,value
2022-08-10T00:01:08.379Z,1.30
2022-08-10T00:04:05.914Z,1.30
2022-08-10T00:07:03.404Z,1.30
2022-08-10T00:10:00.865Z,1.30
2022-08-10T00:12:58.430Z,1.40
2022-08-10T00:15:58.401Z,1.30
2022-08-10T00:18:55.877Z,1.40
2022-08-10T00:21:53.394Z,1.30
2022-08-10T00:24:50.889Z,1.30
2022-08-10T00:28:02.556Z,1.40
2022-08-10T00:31:01.467Z,1.40
2022-08-10T00:33:58.955Z,1.60
2022-08-10T00:36:56.447Z,1.60
2022-08-10T00:39:54.068Z,1.20
2022-08-10T00:42:51.684Z,1.40
2022-08-10T00:45:58.532Z,1.20
2022-08-10T00:49:00.107Z,0.90
2022-08-10T00:51:58.320Z,2.10
2022-08-10T00:54:55.809Z,1.40
2022-08-10T00:57:55.066Z,1.30
2022-08-10T01:00:53.143Z,1.40
2022-08-10T01:04:39.826Z,1.40
2022-08-10T01:07:08.097Z,1.40
2022-08-10T01:10:05.564Z,1.10
2022-08-10T01:13:03.032Z,1.40
2022-08-10T01:16:00.564Z,1.50
2022-08-10T01:18:58.113Z,1.20
2022-08-10T01:21:57.045Z,1.30
2022-08-10T01:24:54.927Z,1.30
2022-08-10T01:27:52.422Z,1.30
2022-08-10T01:30:49.942Z,1.30
2022-08-10T01:33:59.120Z,1.50
2022-08-10T01:37:00.016Z,1.30
2022-08-10T01:39:57.557Z,1.20
2022-08-10T01:42:55.031Z,1.50
2022-08-10T01:45:57.255Z,1.40
2022-08-10T01:48:54.759Z,1.50
2022-08-10T01:51:52.285Z,1.30
2022-08-10T01:54:49.801Z,1.70
2022-08-10T01:57:50.436Z,1.50
2022-08-10T02:00:47.995Z,1.40
2022-08-10T02:04:05.242Z,1.30
2022-08-10T02:07:03.015Z,1.60
2022-08-10T02:10:00.513Z,1.30
2022-08-10T02:12:58.428Z,1.60
2022-08-10T02:16:02.147Z,1.70
2022-08-10T02:19:00.421Z,1.80
2022-08-10T02:22:15.430Z,1.50
2022-08-10T02:25:41.367Z,1.60
2022-08-10T02:28:33.949Z,1.60
2022-08-10T02:31:31.730Z,1.70
2022-08-10T02:34:30.672Z,1.50
2022-08-10T02:37:29.391Z,1.50
2022-08-10T02:45:12.565Z,1.40
2022-08-10T02:45:18.528Z,1.60
2022-08-10T02:47:02.807Z,1.80
2022-08-10T02:50:00.359Z,1.60
2022-08-10T02:52:57.895Z,1.50
2022-08-10T02:55:55.387Z,1.50
2022-08-10T02:58:52.909Z,1.60
2022-08-10T03:01:50.464Z,1.50
2022-08-10T03:04:56.175Z,1.70
2022-08-10T03:07:55.788Z,1.70
2022-08-10T03:10:53.279Z,1.80
2022-08-10T03:13:59.685Z,1.50
2022-08-10T03:16:57.602Z,1.30
2022-08-10T03:20:35.674Z,1.60
2022-08-10T03:23:12.547Z,1.70
2022-08-10T03:26:09.989Z,1.60
2022-08-10T03:29:07.460Z,1.50
2022-08-10T03:32:04.967Z,1.60
2022-08-10T03:35:02.454Z,1.70
2022-08-10T03:38:00.326Z,1.70
2022-08-10T03:40:58.026Z,1.60
2022-08-10T03:43:55.520Z,1.80
2022-08-10T03:46:53.018Z,1.50
2022-08-10T03:49:50.519Z,1.80
2022-08-10T03:52:48.015Z,1.50
2022-08-10T03:56:29.153Z,1.50
2022-08-10T03:59:02.962Z,1.90
2022-08-10T04:02:45.904Z,1.90
2022-08-10T04:05:17.922Z,1.80
2022-08-10T04:08:15.397Z,1.40
2022-08-10T04:11:12.880Z,1.80
2022-08-10T04:14:35.667Z,1.50
2022-08-10T04:18:04.194Z,1.60
2022-08-10T04:20:45.293Z,1.60
2022-08-10T04:23:42.777Z,1.70
2022-08-10T04:26:40.269Z,2.00
2022-08-10T04:29:37.771Z,1.90
2022-08-10T04:32:35.426Z,1.70
2022-08-10T04:35:33.111Z,1.60
2022-08-10T04:38:30.601Z,1.60
2022-08-10T04:41:28.060Z,1.50
2022-08-10T04:44:25.550Z,1.50
2022-08-10T04:47:57.387Z,1.80
2022-08-10T04:50:40.542Z,2.20
2022-08-10T04:54:04.349Z,1.60
2022-08-10T04:56:55.815Z,1.50
2022-08-10T04:59:53.304Z,2.40
2022-08-10T05:02:52.711Z,1.30
2022-08-10T05:05:50.404Z,1.80
2022-08-10T05:08:50.378Z,1.70
2022-08-10T05:11:47.842Z,1.50
2022-08-10T05:14:45.477Z,1.90
2022-08-10T05:18:08.531Z,1.70
2022-08-10T05:21:00.424Z,1.60
2022-08-10T05:24:00.573Z,1.70
2022-08-10T05:27:09.396Z,1.60
2022-08-10T05:30:08.211Z,1.70
2022-08-10T05:33:08.755Z,1.70
2022-08-10T05:36:06.881Z,1.60
2022-08-10T05:39:04.641Z,1.60
2022-08-10T05:42:02.300Z,1.60
2022-08-10T05:44:59.820Z,1.80
2022-08-10T05:48:54.415Z,2.00
2022-08-10T05:51:14.870Z,1.50
2022-08-10T05:54:18.399Z,1.50
2022-08-10T05:57:15.878Z,1.70
2022-08-10T06:00:36.166Z,1.90
2022-08-10T06:03:33.230Z,1.50
2022-08-10T06:06:30.746Z,1.80
2022-08-10T06:09:28.240Z,1.50
2022-08-10T06:12:30.107Z,1.70
2022-08-10T06:15:51.990Z,1.80
2022-08-10T06:18:45.784Z,1.70
2022-08-10T06:21:53.684Z,1.80
2022-08-10T06:25:32.021Z,2.20
2022-08-10T06:28:16.088Z,1.70
2022-08-10T06:31:13.560Z,2.00
2022-08-10T06:34:11.062Z,1.60
2022-08-10T06:37:08.564Z,1.70
2022-08-10T06:40:06.375Z,1.80
2022-08-10T06:43:03.849Z,1.70
2022-08-10T06:46:07.500Z,1.90
2022-08-10T06:49:05.966Z,1.60
2022-08-10T06:52:03.446Z,1.80
2022-08-10T06:55:00.948Z,1.70
2022-08-10T06:58:02.925Z,1.60
2022-08-10T07:01:05.063Z,1.80
2022-08-10T07:04:02.611Z,1.40
2022-08-10T07:07:00.101Z,1.60
2022-08-10T07:09:57.601Z,1.80
2022-08-10T07:12:55.111Z,2.20
2022-08-10T07:16:00.115Z,1.80
2022-08-10T07:18:58.302Z,1.50
2022-08-10T07:21:57.883Z,2.10
2022-08-10T07:24:55.652Z,1.90
2022-08-10T07:27:59.850Z,1.80
2022-08-10T07:30:58.585Z,1.60
2022-08-10T07:33:56.099Z,1.60
2022-08-10T07:36:53.590Z,1.90
2022-08-10T07:40:02.970Z,1.80
2022-08-10T07:43:01.610Z,1.60
2022-08-10T07:45:59.118Z,1.50
2022-08-10T07:48:56.610Z,1.60
2022-08-10T07:51:54.641Z,1.40
2022-08-10T07:54:52.598Z,1.80
2022-08-10T07:57:50.080Z,1.90
2022-08-10T08:00:47.561Z,1.70
2022-08-10T08:03:45.041Z,2.30
2022-08-10T08:07:04.568Z,1.60
2022-08-10T08:10:02.181Z,1.70
2022-08-10T08:12:59.976Z,1.40
2022-08-10T08:16:16.858Z,1.60
2022-08-10T08:19:37.179Z,1.40
2022-08-10T08:24:15.033Z,2.00
2022-08-10T08:25:50.702Z,1.50
2022-08-10T08:28:48.915Z,1.60
2022-08-10T08:32:01.061Z,1.60
2022-08-10T08:34:59.812Z,1.70
2022-08-10T08:38:32.936Z,1.40
2022-08-10T08:41:14.736Z,1.40
2022-08-10T08:44:12.225Z,1.80
2022-08-10T08:48:01.059Z,1.60
2022-08-10T08:50:27.786Z,1.40
2022-08-10T08:53:25.389Z,1.70
2022-08-10T08:56:46.944Z,1.50
2022-08-10T08:59:47.968Z,1.80
2022-08-10T09:02:45.627Z,1.90
2022-08-10T09:05:58.376Z,2.10
2022-08-10T09:08:57.972Z,1.60
2022-08-10T09:11:55.478Z,1.30
2022-08-10T09:14:52.998Z,1.60
2022-08-10T09:17:50.482Z,1.50
2022-08-10T09:20:48.060Z,1.40
2022-08-10T09:24:04.973Z,1.70
2022-08-10T09:27:03.031Z,1.70
2022-08-10T09:30:00.848Z,1.50
2022-08-10T09:36:16.103Z,1.50
2022-08-10T09:36:32.499Z,1.60
2022-08-10T09:40:46.316Z,1.30
2022-08-10T09:43:07.647Z,1.40
2022-08-10T09:46:06.205Z,1.70
2022-08-10T09:49:09.657Z,1.50
2022-08-10T09:52:07.184Z,1.20
2022-08-10T09:55:04.768Z,1.30
2022-08-10T09:58:02.803Z,1.60
2022-08-10T10:01:00.538Z,1.60
2022-08-10T10:03:58.024Z,1.70
2022-08-10T10:06:55.522Z,1.40
2022-08-10T10:09:53.030Z,2.40
2022-08-10T10:12:50.592Z,2.20
2022-08-10T10:15:48.528Z,4.50
2022-08-10T10:18:46.023Z,1.80
2022-08-10T10:21:55.308Z,1.40
2022-08-10T10:24:53.948Z,1.60
2022-08-10T10:27:51.438Z,1.50
2022-08-10T10:30:48.930Z,1.60
2022-08-10T10:33:46.425Z,1.50
2022-08-10T10:36:48.990Z,1.70
2022-08-10T10:39:46.519Z,1.40
2022-08-10T10:42:45.602Z,1.80
2022-08-10T10:45:50.330Z,1.60
2022-08-10T10:48:48.438Z,1.70
2022-08-10T10:51:46.057Z,1.60
2022-08-10T10:54:43.586Z,1.50
2022-08-10T10:58:00.005Z,1.70
2022-08-10T11:00:58.476Z,1.40
2022-08-10T11:03:56.034Z,1.60
2022-08-10T11:06:53.621Z,1.30
2022-08-10T11:10:04.967Z,1.50
2022-08-10T11:14:25.004Z,1.60
2022-08-10T11:16:29.364Z,1.40
2022-08-10T11:19:26.865Z,1.60
2022-08-10T11:22:44.278Z,1.40
2022-08-10T11:25:41.765Z,1.40
2022-08-10T11:28:39.246Z,1.30
2022-08-10T11:31:36.704Z,1.60
2022-08-10T11:34:48.910Z,1.40
2022-08-10T11:38:34.481Z,1.60
2022-08-10T11:42:05.725Z,1.30
2022-08-10T11:44:26.542Z,1.20
2022-08-10T11:47:24.047Z,1.40
2022-08-10T11:50:22.406Z,1.40
2022-08-10T11:53:20.014Z,1.40
2022-08-10T11:56:17.493Z,1.60
2022-08-10T11:59:32.759Z,1.60
2022-08-10T12:02:30.276Z,1.40
2022-08-10T12:05:52.052Z,1.40
2022-08-10T12:10:11.058Z,1.30
2022-08-10T12:12:03.179Z,1.20
2022-08-10T12:15:00.685Z,1.50
2022-08-10T12:17:58.161Z,1.30
2022-08-10T12:20:55.658Z,1.20
2022-08-10T12:24:03.100Z,1.60
2022-08-10T12:27:01.077Z,1.20
2022-08-10T12:29:58.553Z,1.40
2022-08-10T12:32:56.693Z,1.50
2022-08-10T12:36:16.960Z,1.30
2022-08-10T12:39:11.708Z,1.20
2022-08-10T12:42:10.513Z,1.20
2022-08-10T12:45:07.982Z,2.10
2022-08-10T12:48:05.597Z,1.30
2022-08-10T12:51:03.073Z,1.30
2022-08-10T12:54:00.540Z,1.30
2022-08-10T12:56:58.040Z,1.40
2022-08-10T12:59:55.508Z,1.40
2022-08-10T13:02:53.031Z,1.60
2022-08-10T13:06:01.991Z,1.50
2022-08-10T13:09:13.584Z,1.50
2022-08-10T13:12:39.478Z,1.60
2022-08-10T13:15:48.475Z,1.20
2022-08-10T13:18:47.518Z,1.50
2022-08-10T13:21:45.081Z,1.30
2022-08-10T13:24:42.565Z,1.30
2022-08-10T13:27:59.967Z,1.40
2022-08-10T13:30:57.508Z,1.50
2022-08-10T13:34:40.044Z,1.40
2022-08-10T13:37:12.505Z,1.40
2022-08-10T13:40:10.004Z,1.30
2022-08-10T13:43:07.574Z,1.20
2022-08-10T13:46:05.067Z,1.20
2022-08-10T13:49:03.120Z,1.20
2022-08-10T13:52:00.597Z,1.40
2022-08-10T13:54:58.142Z,1.40
2022-08-10T13:57:56.564Z,1.40
2022-08-10T14:00:56.486Z,1.20
2022-08-10T14:03:54.004Z,1.40
2022-08-10T14:06:51.951Z,1.60
2022-08-10T14:09:49.471Z,1.70
2022-08-10T14:12:47.034Z,1.60
2022-08-10T14:15:45.497Z,1.10
2022-08-10T14:18:45.420Z,1.50
2022-08-10T14:21:42.877Z,1.30
2022-08-10T14:24:40.404Z,1.30
2022-08-10T14:28:02.975Z,1.60
2022-08-10T14:30:55.388Z,1.40
2022-08-10T14:33:54.736Z,1.40
2022-08-10T14:36:52.326Z,1.20
2022-08-10T14:39:49.905Z,1.30
2022-08-10T14:42:47.440Z,1.30
2022-08-10T14:45:44.950Z,1.50
2022-08-10T14:48:42.474Z,1.40
2022-08-10T14:51:44.128Z,1.40
2022-08-10T14:54:42.306Z,1.40
2022-08-10T14:58:19.599Z,1.40
2022-08-10T15:01:01.621Z,1.40
2022-08-10T15:04:02.982Z,4.40
2022-08-10T15:07:02.478Z,2.40
2022-08-10T15:10:03.990Z,2.50
2022-08-10T15:13:03.864Z,1.30
2022-08-10T15:16:12.569Z,1.20
2022-08-10T15:20:00.866Z,1.20
2022-08-10T15:22:37.746Z,1.70
2022-08-10T15:25:39.174Z,1.40
2022-08-10T15:29:22.116Z,1.60
2022-08-10T15:32:12.754Z,1.10
2022-08-10T15:35:27.868Z,1.60
2022-08-10T15:38:27.768Z,1.40
2022-08-10T15:41:57.661Z,1.40
2022-08-10T15:44:50.400Z,1.30
2022-08-10T15:47:47.913Z,1.10
2022-08-10T15:50:45.413Z,1.10
2022-08-10T15:53:49.087Z,1.30
2022-08-10T15:56:47.529Z,1.30
2022-08-10T15:59:45.048Z,1.40
2022-08-10T16:02:44.055Z,1.50
2022-08-10T16:06:01.658Z,1.20
2022-08-10T16:10:23.156Z,1.20
2022-08-10T16:12:29.611Z,1.90
2022-08-10T16:18:25.316Z,1.30
2022-08-10T16:21:22.827Z,1.20
2022-08-10T16:24:20.644Z,1.50
2022-08-10T16:27:18.170Z,1.40
2022-08-10T16:30:15.691Z,1.50
2022-08-10T16:33:13.323Z,1.40
2022-08-10T16:36:11.385Z,1.80
2022-08-10T16:39:18.250Z,2.40
2022-08-10T16:42:28.461Z,1.20
2022-08-10T16:45:26.458Z,3.50
2022-08-10T16:48:48.566Z,4.60
2022-08-10T16:51:41.421Z,4.10
2022-08-10T16:54:38.883Z,2.60
2022-08-10T16:57:39.028Z,1.80
2022-08-10T17:00:36.703Z,1.60
2022-08-10T17:04:07.125Z,1.60
2022-08-10T17:06:55.887Z,1.30
2022-08-10T17:09:54.293Z,1.60
2022-08-10T17:12:52.288Z,1.80
2022-08-10T17:15:49.767Z,1.50
2022-08-10T17:18:48.084Z,4.20
2022-08-10T17:21:51.456Z,2.20
2022-08-10T17:24:50.660Z,1.70
2022-08-10T17:28:04.009Z,1.80
2022-08-10T17:31:05.742Z,1.40
2022-08-10T17:34:21.841Z,1.90
2022-08-10T17:37:20.573Z,2.60
2022-08-10T17:40:18.064Z,2.20
2022-08-10T17:43:15.544Z,1.60
2022-08-10T17:46:33.005Z,1.90
2022-08-10T17:49:30.518Z,1.40
2022-08-10T17:52:28.493Z,2.00
2022-08-10T17:55:25.991Z,1.70
2022-08-10T17:58:25.179Z,1.90
2022-08-10T18:01:41.408Z,2.50
2022-08-10T18:04:41.834Z,2.00
2022-08-10T18:07:39.984Z,1.80
2022-08-10T18:10:37.609Z,2.10
2022-08-10T18:13:55.274Z,1.80
2022-08-10T18:16:53.256Z,1.80
2022-08-10T18:19:52.253Z,3.80
2022-08-10T18:22:52.293Z,2.90
2022-08-10T18:25:49.910Z,8.90
2022-08-10T18:28:47.408Z,3.70
2022-08-10T18:31:46.014Z,1.90
2022-08-10T18:34:43.599Z,2.00
2022-08-10T18:37:41.050Z,1.90
2022-08-10T18:40:38.543Z,1.90
2022-08-10T18:44:09.921Z,2.00
2022-08-10T18:46:53.494Z,2.00
2022-08-10T18:49:51.152Z,1.90
2022-08-10T18:52:48.685Z,1.70
2022-08-10T18:56:08.709Z,2.60
2022-08-10T18:59:04.873Z,1.90
2022-08-10T19:02:02.388Z,2.00
2022-08-10T19:04:59.857Z,2.10
2022-08-10T19:07:57.321Z,2.00
2022-08-10T19:10:54.858Z,2.00
2022-08-10T19:13:53.996Z,2.00
2022-08-10T19:16:51.687Z,2.00
2022-08-10T19:19:49.200Z,2.30
2022-08-10T19:22:47.196Z,2.00
2022-08-10T19:26:40.838Z,1.90
2022-08-10T19:29:02.557Z,2.10
2022-08-10T19:32:00.176Z,2.00
2022-08-10T19:34:57.985Z,2.10
2022-08-10T19:38:00.624Z,2.50
2022-08-10T19:40:58.603Z,2.10
2022-08-10T19:44:07.274Z,2.10
2022-08-10T19:47:05.036Z,2.10
2022-08-10T19:50:03.106Z,2.20
2022-08-10T19:53:01.775Z,2.10
2022-08-10T19:56:08.926Z,2.40
2022-08-10T19:59:17.318Z,2.10
2022-08-10T20:02:34.938Z,2.10
2022-08-10T20:05:32.460Z,2.20
2022-08-10T20:08:36.262Z,2.10
2022-08-10T20:11:52.855Z,2.40
2022-08-10T20:14:50.437Z,2.30
2022-08-10T20:17:52.488Z,2.20
2022-08-10T20:20:52.591Z,2.60
2022-08-10T20:23:55.350Z,2.10
2022-08-10T20:26:53.745Z,2.50
2022-08-10T20:29:57.300Z,2.90
2022-08-10T20:32:57.922Z,2.50
2022-08-10T20:35:55.383Z,2.40
2022-08-10T20:38:52.879Z,2.60
2022-08-10T20:41:51.468Z,2.40
2022-08-10T20:44:50.865Z,2.30
2022-08-10T20:47:54.602Z,2.20
2022-08-10T20:50:52.459Z,2.70
2022-08-10T20:53:49.942Z,2.90
2022-08-10T20:56:48.646Z,3.10
2022-08-10T21:00:02.408Z,2.60
2022-08-10T21:03:07.076Z,2.80
2022-08-10T21:06:05.240Z,2.30
2022-08-10T21:09:02.754Z,2.80
2022-08-10T21:12:00.229Z,2.90
2022-08-10T21:14:57.963Z,8.80
2022-08-10T21:17:56.040Z,12.40
2022-08-10T21:20:55.101Z,9.80
2022-08-10T21:23:57.375Z,4.40
2022-08-10T21:26:53.988Z,7.80
2022-08-10T21:29:56.047Z,12.30
2022-08-10T21:32:52.918Z,5.50
2022-08-10T21:35:49.663Z,2.80
2022-08-10T21:38:46.014Z,2.80
2022-08-10T21:42:01.281Z,2.60
2022-08-10T21:45:16.761Z,2.80
2022-08-10T21:48:32.032Z,3.00
2022-08-10T21:52:01.233Z,2.70
2022-08-10T21:55:17.504Z,2.60
2022-08-10T21:58:33.548Z,2.40
2022-08-10T22:01:51.279Z,2.50
2022-08-10T22:05:06.723Z,2.50
2022-08-10T22:08:22.562Z,2.50
2022-08-10T22:11:43.052Z,2.40
2022-08-10T22:14:58.609Z,2.50
2022-08-10T22:18:14.184Z,2.70
2022-08-10T22:21:46.916Z,2.30
2022-08-10T22:25:02.340Z,2.40
2022-08-10T22:28:18.414Z,2.70
2022-08-10T22:34:54.276Z,2.50
2022-08-10T22:38:09.425Z,2.70
2022-08-10T22:41:24.548Z,2.10
2022-08-10T22:44:39.822Z,2.80
2022-08-10T22:47:54.871Z,2.60
2022-08-10T22:50:57.210Z,2.90
2022-08-10T22:54:30.752Z,1.90
2022-08-10T22:57:47.058Z,2.90
2022-08-10T23:00:44.505Z,3.00
2022-08-10T23:03:41.942Z,2.70
2022-08-10T23:06:39.491Z,2.70
2022-08-10T23:09:36.904Z,3.30
2022-08-10T23:12:39.556Z,2.50
2022-08-10T23:15:54.582Z,2.50
2022-08-10T23:19:09.535Z,2.80
2022-08-10T23:22:07.530Z,2.50
2022-08-10T23:25:04.941Z,2.60
2022-08-10T23:28:12.317Z,2.60
2022-08-10T23:31:10.186Z,2.20
2022-08-10T23:34:07.648Z,2.60
2022-08-10T23:37:05.082Z,2.90
2022-08-10T23:40:02.570Z,2.50
2022-08-10T23:43:00.011Z,2.30
2022-08-10T23:45:57.438Z,2.80
2022-08-10T23:48:54.858Z,2.60
2022-08-10T23:51:55.190Z,2.80
2022-08-10T23:54:54.081Z,2.20
2022-08-10T23:57:51.790Z,2.70
